This is the latest recevied weather packets stored in our database for station/object NR0Q. If no packets are shown the sender has not sent any weather packets the latest 10 day(s).
| Time | Temp. | Humidity | Pressure | Rain* | Wind** | Luminosity | Snow |
|---|---|---|---|---|---|---|---|
| 1778247901 | 17.22° C | 68% | 1014.6 hPa | 0 mm | - | - | - |
| 1778247001 | 16.11° C | 69% | 1014.6 hPa | 0 mm | - | - | - |
| 1778246101 | 15.56° C | 71% | 1013.6 hPa | 0 mm | - | - | - |
| 1778245201 | 15° C | 72% | 1013.6 hPa | 0 mm | - | - | - |
| 1778244302 | 13.89° C | 74% | 1014.6 hPa | 0 mm | - | - | - |
| 1778243402 | 12.78° C | 77% | 1013.6 hPa | 0 mm | - | - | - |
| 1778242502 | 11.11° C | 83% | 1013.6 hPa | 0 mm | - | - | - |
| 1778241601 | 10° C | 88% | 1013.6 hPa | 0 mm | - | - | - |
| 1778240701 | 10° C | 86% | 1013.6 hPa | 0 mm | - | - | - |
| 1778239801 | 10° C | 85% | 1013.6 hPa | 0 mm | - | - | - |
| 1778238901 | 10.56° C | 84% | 1013.6 hPa | 0 mm | - | - | - |
| 1778238001 | 10.56° C | 81% | 1013.6 hPa | 0 mm | - | - | - |
| 1778237101 | 11.67° C | 77% | 1013.6 hPa | 0 mm | - | - | - |
| 1778236201 | 12.78° C | 73% | 1013.6 hPa | 0 mm | - | - | - |
| 1778235301 | 13.33° C | 71% | 1013.6 hPa | 0 mm | - | - | - |
| 1778234401 | 13.33° C | 71% | 1013.6 hPa | 0 mm | - | - | - |
| 1778233501 | 11.67° C | 77% | 1012.5 hPa | 0 mm | - | - | - |
| 1778232602 | 11.11° C | 77% | 1012.5 hPa | 0 mm | - | - | - |
| 1778231701 | 11.11° C | 79% | 1012.5 hPa | 0 mm | - | - | - |
| 1778230801 | 9.44° C | 84% | 1012.5 hPa | 0 mm | - | - | - |
| 1778229902 | 8.89° C | 85% | 1012.5 hPa | 0 mm | - | - | - |
| 1778229001 | 8.89° C | 85% | 1012.5 hPa | 0 mm | - | - | - |
| 1778228101 | 8.89° C | 85% | 1012.5 hPa | 0 mm | - | - | - |
| 1778227201 | 8.89° C | 85% | 1012.5 hPa | 0 mm | - | - | - |
| 1778226301 | 9.44° C | 85% | 1013.6 hPa | 0 mm | - | - | - |
* Rain latest hour (hover to see other rain measurements)
** Current wind speed in m/s (hover to see current wind gust speed)